createdAt,value
2023-05-08T00:00:20.042Z,102118.56
2023-05-08T00:02:47.008Z,102121.13
2023-05-08T00:05:17.303Z,102121.63
2023-05-08T00:07:46.253Z,102124.16
2023-05-08T00:10:15.675Z,102120.09
2023-05-08T00:12:42.750Z,102124.50
2023-05-08T00:15:12.534Z,102124.16
2023-05-08T00:17:43.989Z,102119.72
2023-05-08T00:20:12.167Z,102122.72
2023-05-08T00:22:39.290Z,102123.00
2023-05-08T00:25:06.918Z,102118.25
2023-05-08T00:27:38.947Z,102114.53
2023-05-08T00:30:10.813Z,102110.09
2023-05-08T00:32:38.007Z,102109.75
2023-05-08T00:35:05.429Z,102104.34
2023-05-08T00:37:35.457Z,102101.56
2023-05-08T00:40:02.310Z,102099.25
2023-05-08T00:42:31.395Z,102100.44
2023-05-08T00:45:03.232Z,102108.97
2023-05-08T00:47:31.890Z,102108.59
2023-05-08T00:50:00.768Z,102102.81
2023-05-08T00:52:35.166Z,102102.28
2023-05-08T00:55:03.408Z,102113.59
2023-05-08T00:57:32.727Z,102114.25
2023-05-08T01:00:01.895Z,102115.31
2023-05-08T01:02:31.643Z,102113.28
2023-05-08T01:04:58.818Z,102120.56
2023-05-08T01:07:26.069Z,102116.94
2023-05-08T01:09:52.910Z,102112.09
2023-05-08T01:12:34.622Z,102114.28
2023-05-08T01:15:12.547Z,102111.28
2023-05-08T01:17:57.762Z,102123.09
2023-05-08T01:20:42.185Z,102125.53
2023-05-08T01:24:03.314Z,102124.66
2023-05-08T01:26:39.203Z,102130.91
2023-05-08T01:29:46.489Z,102127.59
2023-05-08T01:32:46.400Z,102122.06
2023-05-08T01:35:40.885Z,102119.28
2023-05-08T01:38:34.652Z,102126.53
2023-05-08T01:41:10.766Z,102123.88
2023-05-08T01:44:00.429Z,102135.91
2023-05-08T01:46:29.501Z,102132.50
2023-05-08T01:49:25.685Z,102128.28
2023-05-08T01:52:08.686Z,102132.41
2023-05-08T01:54:44.817Z,102129.25
2023-05-08T01:57:15.251Z,102124.59
2023-05-08T01:59:48.741Z,102123.03
2023-05-08T02:02:17.052Z,102129.75
2023-05-08T02:04:45.028Z,102118.50
2023-05-08T02:07:11.939Z,102126.88
2023-05-08T02:09:41.385Z,102125.31
2023-05-08T02:12:09.412Z,102125.81
2023-05-08T02:14:38.485Z,102127.16
2023-05-08T02:17:09.290Z,102126.41
2023-05-08T02:19:44.462Z,102137.13
2023-05-08T02:22:16.606Z,102136.50
2023-05-08T02:24:48.991Z,102133.31
2023-05-08T02:27:24.502Z,102135.03
2023-05-08T02:29:55.132Z,102122.72
2023-05-08T02:32:25.519Z,102123.59
2023-05-08T02:35:03.532Z,102122.72
2023-05-08T02:37:32.382Z,102126.16
2023-05-08T02:39:59.887Z,102124.41
2023-05-08T02:42:29.344Z,102117.56
2023-05-08T02:44:56.200Z,102109.19
2023-05-08T02:47:30.113Z,102109.66
2023-05-08T02:50:10.071Z,102108.16
2023-05-08T02:52:54.655Z,102106.72
2023-05-08T02:55:41.264Z,102116.25
2023-05-08T02:58:24.344Z,102106.28
2023-05-08T03:01:07.663Z,102104.91
2023-05-08T03:03:45.251Z,102113.28
2023-05-08T03:06:22.023Z,102106.19
2023-05-08T03:08:50.874Z,102104.63
2023-05-08T03:11:28.878Z,102106.25
2023-05-08T03:14:03.855Z,102110.81
2023-05-08T03:16:36.705Z,102107.72
2023-05-08T03:19:09.509Z,102104.06
2023-05-08T03:21:41.113Z,102113.13
2023-05-08T03:24:09.798Z,102111.81
2023-05-08T03:26:44.742Z,102109.47
2023-05-08T03:29:15.426Z,102096.44
2023-05-08T03:31:46.288Z,102096.44
2023-05-08T03:34:20.824Z,102097.91
2023-05-08T03:36:49.831Z,102097.03
2023-05-08T03:39:20.093Z,102103.31
2023-05-08T03:41:48.073Z,102096.19
2023-05-08T03:44:15.688Z,102102.09
2023-05-08T03:46:43.309Z,102101.72
2023-05-08T03:49:10.710Z,102104.81
2023-05-08T03:51:40.365Z,102098.91
2023-05-08T03:54:07.256Z,102096.69
2023-05-08T03:56:36.565Z,102104.06
2023-05-08T03:59:29.144Z,102099.75
2023-05-08T04:02:21.715Z,102101.84
2023-05-08T04:04:56.513Z,102105.03
2023-05-08T04:07:27.455Z,102108.50
2023-05-08T04:10:26.493Z,102112.16
2023-05-08T04:13:10.763Z,102106.41
2023-05-08T04:16:17.824Z,102101.59
2023-05-08T04:18:49.936Z,102110.81
2023-05-08T04:21:26.087Z,102112.66
2023-05-08T04:23:56.643Z,102112.91
2023-05-08T04:26:23.664Z,102109.84
2023-05-08T04:28:51.091Z,102111.44
2023-05-08T04:31:19.844Z,102108.97
2023-05-08T04:33:47.030Z,102114.88
2023-05-08T04:36:16.633Z,102118.31
2023-05-08T04:38:44.063Z,102119.91
2023-05-08T04:41:11.096Z,102121.03
2023-05-08T04:43:40.511Z,102122.09
2023-05-08T04:46:10.486Z,102123.00
2023-05-08T04:48:37.608Z,102128.63
2023-05-08T04:51:04.660Z,102128.78
2023-05-08T04:53:34.634Z,102133.94
2023-05-08T04:56:04.757Z,102123.25
2023-05-08T04:58:31.868Z,102124.28
2023-05-08T05:01:03.705Z,102122.97
2023-05-08T05:03:30.842Z,102131.34
2023-05-08T05:06:02.313Z,102132.59
2023-05-08T05:08:32.222Z,102131.53
2023-05-08T05:10:59.359Z,102136.19
2023-05-08T05:13:26.430Z,102128.41
2023-05-08T05:15:54.677Z,102142.16
2023-05-08T05:18:21.887Z,102137.16
2023-05-08T05:20:48.730Z,102127.91
2023-05-08T05:23:15.677Z,102126.31
2023-05-08T05:25:42.639Z,102131.94
2023-05-08T05:28:09.703Z,102131.84
2023-05-08T05:30:39.063Z,102130.38
2023-05-08T05:33:06.339Z,102139.59
2023-05-08T05:35:33.210Z,102133.69
2023-05-08T05:38:02.391Z,102128.84
2023-05-08T05:40:29.248Z,102131.69
2023-05-08T05:42:56.260Z,102128.78
2023-05-08T05:45:26.259Z,102134.69
2023-05-08T05:47:54.051Z,102143.41
2023-05-08T05:50:22.427Z,102141.88
2023-05-08T05:52:49.316Z,102142.41
2023-05-08T05:55:20.536Z,102133.63
2023-05-08T05:57:47.702Z,102146.22
2023-05-08T06:00:17.666Z,102137.31
2023-05-08T06:02:45.798Z,102145.94
2023-05-08T06:05:15.936Z,102137.06
2023-05-08T06:07:46.395Z,102134.00
2023-05-08T06:10:13.375Z,102134.38
2023-05-08T06:12:43.096Z,102133.84
2023-05-08T06:15:11.295Z,102138.88
2023-05-08T06:17:38.408Z,102136.38
2023-05-08T06:20:06.505Z,102149.56
2023-05-08T06:22:37.703Z,102138.81
2023-05-08T06:25:06.996Z,102145.00
2023-05-08T06:27:34.868Z,102147.09
2023-05-08T06:30:02.504Z,102147.69
2023-05-08T06:32:29.584Z,102141.56
2023-05-08T06:35:01.198Z,102140.81
2023-05-08T06:37:28.174Z,102136.56
2023-05-08T06:40:10.233Z,102133.66
2023-05-08T06:42:38.745Z,102134.69
2023-05-08T06:45:06.508Z,102152.75
2023-05-08T06:47:33.756Z,102141.09
2023-05-08T06:50:01.306Z,102129.88
2023-05-08T06:52:28.542Z,102145.63
2023-05-08T06:54:57.757Z,102142.22
2023-05-08T06:57:29.409Z,102136.06
2023-05-08T07:00:00.117Z,102141.84
2023-05-08T07:02:27.155Z,102141.94
2023-05-08T07:04:54.156Z,102134.66
2023-05-08T07:07:21.195Z,102143.84
2023-05-08T07:09:48.051Z,102136.25
2023-05-08T07:12:16.713Z,102136.81
2023-05-08T07:14:43.796Z,102136.53
2023-05-08T07:17:10.868Z,102146.59
2023-05-08T07:19:38.762Z,102126.69
2023-05-08T07:22:08.507Z,102134.25
2023-05-08T07:24:35.638Z,102129.09
2023-05-08T07:27:03.259Z,102136.25
2023-05-08T07:29:30.216Z,102134.50
2023-05-08T07:31:57.474Z,102132.25
2023-05-08T07:34:26.835Z,102135.78
2023-05-08T07:36:56.238Z,102133.97
2023-05-08T07:39:23.229Z,102131.41
2023-05-08T07:41:50.281Z,102129.69
2023-05-08T07:44:17.223Z,102133.69
2023-05-08T07:46:44.296Z,102131.59
2023-05-08T07:49:11.352Z,102140.22
2023-05-08T07:51:38.297Z,102118.97
2023-05-08T07:54:09.695Z,102131.25
2023-05-08T07:56:36.539Z,102132.03
2023-05-08T07:59:06.424Z,102133.34
2023-05-08T08:01:35.969Z,102127.31
2023-05-08T08:04:03.298Z,102127.69
2023-05-08T08:06:30.555Z,102128.81
2023-05-08T08:09:00.377Z,102119.94
2023-05-08T08:11:27.507Z,102112.75
2023-05-08T08:13:54.411Z,102111.88
2023-05-08T08:16:21.339Z,102122.72
2023-05-08T08:18:52.835Z,102130.06
2023-05-08T08:21:22.946Z,102119.69
2023-05-08T08:23:52.304Z,102123.19
2023-05-08T08:26:21.711Z,102124.13
2023-05-08T08:28:48.803Z,102119.22
2023-05-08T08:31:16.450Z,102117.25
2023-05-08T08:33:43.728Z,102122.22
2023-05-08T08:36:17.229Z,102116.13
2023-05-08T08:38:46.566Z,102124.09
2023-05-08T08:41:15.353Z,102136.50
2023-05-08T08:43:45.471Z,102120.22
2023-05-08T08:46:15.442Z,102140.75
2023-05-08T08:48:47.399Z,102124.38
2023-05-08T08:51:32.789Z,102113.88
2023-05-08T08:54:14.151Z,102120.88
2023-05-08T08:56:45.078Z,102119.59
2023-05-08T08:59:13.369Z,102116.06
2023-05-08T09:01:41.351Z,102126.00
2023-05-08T09:04:09.253Z,102127.66
2023-05-08T09:06:38.180Z,102105.88
2023-05-08T09:09:07.880Z,102097.97
2023-05-08T09:11:36.802Z,102096.31
2023-05-08T09:14:06.690Z,102102.56
2023-05-08T09:16:33.957Z,102101.72
2023-05-08T09:19:03.857Z,102100.88
2023-05-08T09:21:32.672Z,102094.38
2023-05-08T09:24:08.459Z,102094.03
2023-05-08T09:26:42.190Z,102101.91
2023-05-08T09:29:17.067Z,102089.94
2023-05-08T09:31:52.213Z,102089.09
2023-05-08T09:34:33.327Z,102092.50
2023-05-08T09:37:09.577Z,102097.94
2023-05-08T09:39:43.369Z,102099.31
2023-05-08T09:42:12.585Z,102096.91
2023-05-08T09:44:54.340Z,102091.25
2023-05-08T09:47:25.648Z,102092.72
2023-05-08T09:50:12.712Z,102097.75
2023-05-08T09:52:49.367Z,102071.81
2023-05-08T09:55:18.930Z,102083.09
2023-05-08T09:57:59.906Z,102090.16
2023-05-08T10:00:32.581Z,102084.03
2023-05-08T10:03:04.217Z,102082.97
2023-05-08T10:05:34.631Z,102099.38
2023-05-08T10:08:23.482Z,102091.81
2023-05-08T10:10:54.921Z,102079.53
2023-05-08T10:13:21.925Z,102082.91
2023-05-08T10:15:52.657Z,102091.97
2023-05-08T10:18:22.409Z,102081.84
2023-05-08T10:20:51.301Z,102093.81
2023-05-08T10:23:19.424Z,102074.25
2023-05-08T10:25:49.393Z,102086.13
2023-05-08T10:28:27.735Z,102109.34
2023-05-08T10:31:00.399Z,102078.69
2023-05-08T10:33:34.921Z,102072.09
2023-05-08T10:36:03.066Z,102074.16
2023-05-08T10:38:33.645Z,102073.63
2023-05-08T10:41:01.490Z,102070.59
2023-05-08T10:43:32.511Z,102074.66
2023-05-08T10:46:11.843Z,102078.31
2023-05-08T10:49:09.514Z,102067.84
2023-05-08T10:52:18.305Z,102084.78
2023-05-08T10:54:52.116Z,102075.81
2023-05-08T10:57:19.237Z,102057.94
2023-05-08T10:59:47.602Z,102063.44
2023-05-08T11:02:26.814Z,102055.59
2023-05-08T11:04:53.770Z,102050.25
2023-05-08T11:07:30.286Z,102046.03
2023-05-08T11:10:15.920Z,102044.00
2023-05-08T11:12:51.491Z,102043.59
2023-05-08T11:15:37.980Z,102043.25
2023-05-08T11:18:09.122Z,102048.78
2023-05-08T11:20:41.853Z,102051.50
2023-05-08T11:23:32.911Z,102049.75
2023-05-08T11:26:16.552Z,102034.94
2023-05-08T11:28:59.257Z,102034.03
2023-05-08T11:31:50.435Z,102024.34
2023-05-08T11:34:42.806Z,102034.44
2023-05-08T11:37:11.475Z,102034.41
2023-05-08T11:39:40.728Z,102036.53
2023-05-08T11:42:27.163Z,102030.50
2023-05-08T11:45:07.732Z,102028.47
2023-05-08T11:47:44.388Z,102031.28
2023-05-08T11:50:15.542Z,102027.16
2023-05-08T11:52:45.039Z,102026.97
2023-05-08T11:55:15.880Z,102023.56
2023-05-08T11:57:45.302Z,102030.50
2023-05-08T12:00:13.805Z,102027.75
2023-05-08T12:02:43.883Z,102024.78
2023-05-08T12:05:11.851Z,102023.59
2023-05-08T12:07:48.277Z,102019.63
2023-05-08T12:10:17.029Z,102031.00
2023-05-08T12:12:45.366Z,102023.53
2023-05-08T12:15:16.277Z,102008.34
2023-05-08T12:17:43.700Z,102020.25
2023-05-08T12:20:15.885Z,102012.50
2023-05-08T12:22:52.311Z,102015.91
2023-05-08T12:25:20.005Z,102010.19
2023-05-08T12:27:49.946Z,102015.50
2023-05-08T12:30:17.652Z,102002.59
2023-05-08T12:32:46.352Z,101995.22
2023-05-08T12:35:14.058Z,102013.09
2023-05-08T12:37:41.082Z,102004.28
2023-05-08T12:40:19.521Z,102021.34
2023-05-08T12:42:52.140Z,102011.09
2023-05-08T12:45:33.872Z,102011.91
2023-05-08T12:48:11.139Z,102010.97
2023-05-08T12:50:41.481Z,102009.88
2023-05-08T12:53:17.155Z,102008.19
2023-05-08T12:55:58.061Z,102007.59
2023-05-08T12:58:27.972Z,102007.59
2023-05-08T13:01:16.169Z,101999.97
2023-05-08T13:03:47.199Z,102022.44
2023-05-08T13:06:22.480Z,102003.38
2023-05-08T13:08:56.733Z,102008.03
2023-05-08T13:11:33.461Z,102001.47
2023-05-08T13:14:03.368Z,101997.03
2023-05-08T13:16:30.514Z,101987.34
2023-05-08T13:18:57.789Z,101989.63
2023-05-08T13:21:27.329Z,101996.69
2023-05-08T13:23:56.617Z,101985.00
2023-05-08T13:26:26.851Z,101974.94
2023-05-08T13:28:56.202Z,101968.25
2023-05-08T13:31:26.088Z,101974.63
2023-05-08T13:33:55.655Z,101970.94
2023-05-08T13:36:26.378Z,101972.03
2023-05-08T13:38:54.811Z,101963.47
2023-05-08T13:41:22.110Z,101953.72
2023-05-08T13:43:51.382Z,101970.59
2023-05-08T13:46:21.387Z,101970.66
2023-05-08T13:48:52.892Z,101962.41
2023-05-08T13:51:19.760Z,101970.97
2023-05-08T13:53:49.162Z,101959.63
2023-05-08T13:56:18.372Z,101959.03
2023-05-08T13:58:45.442Z,101952.59
2023-05-08T14:01:25.667Z,101955.75
2023-05-08T14:03:56.836Z,101942.78
2023-05-08T14:06:29.443Z,101945.78
2023-05-08T14:08:59.019Z,101948.22
2023-05-08T14:11:25.928Z,101929.94
2023-05-08T14:13:53.031Z,101931.75
2023-05-08T14:16:22.171Z,101923.41
2023-05-08T14:18:49.677Z,101929.50
2023-05-08T14:21:16.600Z,101913.41
2023-05-08T14:23:44.631Z,101919.00
2023-05-08T14:26:11.645Z,101919.91
2023-05-08T14:28:38.716Z,101921.41
2023-05-08T14:31:06.047Z,101929.69
2023-05-08T14:33:33.145Z,101920.22
2023-05-08T14:36:00.379Z,101915.69
2023-05-08T14:38:29.963Z,101907.81
2023-05-08T14:40:56.916Z,101906.13
2023-05-08T14:43:24.049Z,101907.91
2023-05-08T14:45:51.815Z,101913.94
2023-05-08T14:48:21.344Z,101899.56
2023-05-08T14:50:50.353Z,101901.16
2023-05-08T14:53:19.915Z,101918.34
2023-05-08T14:55:47.398Z,101891.16
2023-05-08T14:58:17.120Z,101883.22
2023-05-08T15:00:46.828Z,101896.06
2023-05-08T15:03:14.083Z,101901.16
2023-05-08T15:05:40.969Z,101896.50
2023-05-08T15:08:08.580Z,101886.91
2023-05-08T15:10:36.710Z,101888.78
2023-05-08T15:13:03.870Z,101896.41
2023-05-08T15:15:33.148Z,101896.53
2023-05-08T15:18:00.201Z,101897.44
2023-05-08T15:20:27.182Z,101884.25
2023-05-08T15:22:56.620Z,101882.56
2023-05-08T15:25:26.207Z,101875.19
2023-05-08T15:27:53.154Z,101875.41
2023-05-08T15:30:21.169Z,101872.66
2023-05-08T15:32:51.019Z,101866.16
2023-05-08T15:35:21.946Z,101872.00
2023-05-08T15:37:48.857Z,101860.31
2023-05-08T15:40:17.215Z,101853.66
2023-05-08T15:42:44.160Z,101851.78
2023-05-08T15:45:16.597Z,101850.78
2023-05-08T15:47:43.859Z,101844.63
2023-05-08T15:50:13.286Z,101847.59
2023-05-08T15:52:42.795Z,101841.97
2023-05-08T15:55:12.586Z,101846.97
2023-05-08T15:57:44.289Z,101851.97
2023-05-08T16:00:15.340Z,101865.50
2023-05-08T16:02:42.730Z,101854.09
2023-05-08T16:05:12.464Z,101839.63
2023-05-08T16:07:39.483Z,101853.97
2023-05-08T16:10:10.264Z,101833.66
2023-05-08T16:12:39.438Z,101835.13
2023-05-08T16:15:09.088Z,101836.31
2023-05-08T16:17:36.028Z,101830.81
2023-05-08T16:20:05.850Z,101836.50
2023-05-08T16:22:32.790Z,101833.69
2023-05-08T16:24:59.966Z,101832.94
2023-05-08T16:27:30.810Z,101841.25
2023-05-08T16:29:57.859Z,101840.72
2023-05-08T16:32:28.066Z,101838.41
2023-05-08T16:34:55.042Z,101835.41
2023-05-08T16:37:21.917Z,101835.09
2023-05-08T16:39:53.394Z,101821.38
2023-05-08T16:42:20.944Z,101827.53
2023-05-08T16:44:50.684Z,101829.00
2023-05-08T16:47:19.956Z,101822.63
2023-05-08T16:49:47.074Z,101823.53
2023-05-08T16:52:14.088Z,101830.34
2023-05-08T16:54:41.218Z,101824.63
2023-05-08T16:57:08.104Z,101826.31
2023-05-08T16:59:35.009Z,101825.94
2023-05-08T17:02:02.172Z,101836.13
2023-05-08T17:04:30.857Z,101834.56
2023-05-08T17:06:59.867Z,101831.47
2023-05-08T17:09:28.028Z,101827.38
2023-05-08T17:11:55.060Z,101826.44
2023-05-08T17:14:22.163Z,101838.22
2023-05-08T17:16:52.031Z,101833.13
2023-05-08T17:19:18.898Z,101828.59
2023-05-08T17:21:48.316Z,101823.19
2023-05-08T17:24:17.483Z,101813.97
2023-05-08T17:26:48.910Z,101813.88
2023-05-08T17:29:15.892Z,101817.84
2023-05-08T17:31:42.810Z,101810.97
2023-05-08T17:34:09.772Z,101814.22
2023-05-08T17:36:36.721Z,101817.00
2023-05-08T17:39:04.024Z,101817.00
2023-05-08T17:41:30.915Z,101802.31
2023-05-08T17:43:58.097Z,101812.81
2023-05-08T17:46:25.165Z,101812.03
2023-05-08T17:48:54.840Z,101820.38
2023-05-08T17:51:24.082Z,101813.47
2023-05-08T17:53:53.019Z,101817.00
2023-05-08T17:56:23.287Z,101822.56
2023-05-08T17:58:52.594Z,101822.44
2023-05-08T18:01:20.464Z,101818.97
2023-05-08T18:03:48.537Z,101818.00
2023-05-08T18:06:17.140Z,101830.91
2023-05-08T18:08:45.558Z,101823.38
2023-05-08T18:11:30.785Z,101824.56
2023-05-08T18:14:00.110Z,101823.66
2023-05-08T18:16:27.051Z,101827.22
2023-05-08T18:18:56.266Z,101835.28
2023-05-08T18:21:25.490Z,101831.94
2023-05-08T18:23:52.446Z,101834.97
2023-05-08T18:26:19.293Z,101840.53
2023-05-08T18:28:46.188Z,101839.53
2023-05-08T18:31:13.649Z,101842.00
2023-05-08T18:33:43.569Z,101840.69
2023-05-08T18:36:13.148Z,101843.53
2023-05-08T18:38:42.568Z,101849.50
2023-05-08T18:41:09.561Z,101842.31
2023-05-08T18:43:46.574Z,101843.09
2023-05-08T18:46:14.483Z,101848.84
2023-05-08T18:48:41.689Z,101847.56
2023-05-08T18:51:09.096Z,101853.16
2023-05-08T18:53:40.800Z,101847.94
2023-05-08T18:56:11.569Z,101847.38
2023-05-08T18:58:41.231Z,101846.44
2023-05-08T19:01:09.133Z,101846.72
2023-05-08T19:03:38.457Z,101851.63
2023-05-08T19:06:08.038Z,101855.31
2023-05-08T19:08:35.012Z,101853.03
2023-05-08T19:11:06.618Z,101848.69
2023-05-08T19:13:37.224Z,101855.50
2023-05-08T19:16:04.534Z,101853.72
2023-05-08T19:18:32.019Z,101857.69
2023-05-08T19:20:59.202Z,101859.03
2023-05-08T19:23:26.244Z,101861.47
2023-05-08T19:25:54.715Z,101859.88
2023-05-08T19:28:21.969Z,101859.88
2023-05-08T19:30:52.706Z,101856.94
2023-05-08T19:33:20.855Z,101861.63
2023-05-08T19:35:48.541Z,101862.59
2023-05-08T19:38:17.883Z,101860.16
2023-05-08T19:40:56.603Z,101863.09
2023-05-08T19:43:26.990Z,101859.47
2023-05-08T19:45:56.839Z,101863.84
2023-05-08T19:48:27.597Z,101871.50
2023-05-08T19:50:55.246Z,101870.72
2023-05-08T19:53:26.013Z,101864.56
2023-05-08T19:55:55.651Z,101870.66
2023-05-08T19:58:27.443Z,101872.28
2023-05-08T20:00:54.729Z,101871.38
2023-05-08T20:03:22.026Z,101865.53
2023-05-08T20:05:57.426Z,101863.16
2023-05-08T20:08:24.742Z,101861.63
2023-05-08T20:10:52.245Z,101866.97
2023-05-08T20:13:19.320Z,101856.78
2023-05-08T20:15:48.860Z,101864.28
2023-05-08T20:18:15.939Z,101863.44
2023-05-08T20:20:43.662Z,101861.94
2023-05-08T20:23:13.619Z,101863.47
2023-05-08T20:25:41.096Z,101859.28
2023-05-08T20:28:08.168Z,101860.63
2023-05-08T20:30:35.181Z,101861.50
2023-05-08T20:33:04.975Z,101855.91
2023-05-08T20:35:35.380Z,101855.63
2023-05-08T20:38:05.343Z,101850.97
2023-05-08T20:40:32.429Z,101852.19
2023-05-08T20:43:01.488Z,101848.78
2023-05-08T20:45:32.976Z,101844.03
2023-05-08T20:47:59.927Z,101844.03
2023-05-08T20:50:29.157Z,101838.72
2023-05-08T20:52:56.118Z,101835.31
2023-05-08T20:55:23.268Z,101834.13
2023-05-08T20:57:50.220Z,101836.88
2023-05-08T21:00:19.774Z,101834.47
2023-05-08T21:02:46.894Z,101829.03
2023-05-08T21:05:14.100Z,101829.72
2023-05-08T21:07:43.483Z,101818.78
2023-05-08T21:10:10.873Z,101820.50
2023-05-08T21:12:44.559Z,101822.38
2023-05-08T21:15:11.673Z,101818.13
2023-05-08T21:17:41.832Z,101825.63
2023-05-08T21:20:09.743Z,101835.53
2023-05-08T21:22:36.972Z,101826.63
2023-05-08T21:25:06.476Z,101820.81
2023-05-08T21:27:33.433Z,101828.34
2023-05-08T21:30:00.778Z,101826.47
2023-05-08T21:32:27.947Z,101820.84
2023-05-08T21:34:56.057Z,101821.19
2023-05-08T21:37:23.937Z,101822.22
2023-05-08T21:39:50.827Z,101828.88
2023-05-08T21:42:18.698Z,101823.22
2023-05-08T21:44:51.786Z,101820.50
2023-05-08T21:47:23.106Z,101813.84
2023-05-08T21:49:50.290Z,101813.00
2023-05-08T21:52:22.189Z,101817.09
2023-05-08T21:54:50.620Z,101814.34
2023-05-08T21:57:21.189Z,101809.06
2023-05-08T21:59:49.580Z,101814.19
2023-05-08T22:02:16.661Z,101805.81
2023-05-08T22:04:44.694Z,101816.22
2023-05-08T22:07:13.380Z,101814.50
2023-05-08T22:09:43.490Z,101811.94
2023-05-08T22:12:10.663Z,101811.59
2023-05-08T22:14:38.870Z,101804.44
2023-05-08T22:17:07.900Z,101809.91
2023-05-08T22:19:38.577Z,101802.72
2023-05-08T22:22:05.608Z,101816.03
2023-05-08T22:24:32.716Z,101808.03
2023-05-08T22:26:59.648Z,101820.81
2023-05-08T22:29:27.243Z,101807.50
2023-05-08T22:31:57.042Z,101804.72
2023-05-08T22:34:24.520Z,101801.63
2023-05-08T22:36:52.039Z,101802.06
2023-05-08T22:39:24.123Z,101791.88
2023-05-08T22:41:51.036Z,101787.06
2023-05-08T22:44:18.282Z,101796.06
2023-05-08T22:46:47.830Z,101783.66
2023-05-08T22:49:19.850Z,101774.09
2023-05-08T22:51:46.831Z,101772.84
2023-05-08T22:54:13.872Z,101779.66
2023-05-08T22:56:41.152Z,101773.13
2023-05-08T22:59:12.703Z,101772.13
2023-05-08T23:01:39.827Z,101776.78
2023-05-08T23:04:09.995Z,101766.00
2023-05-08T23:06:36.906Z,101768.06
2023-05-08T23:09:04.480Z,101764.28
2023-05-08T23:11:31.753Z,101758.63
2023-05-08T23:13:58.992Z,101755.72
2023-05-08T23:16:28.935Z,101759.44
2023-05-08T23:18:55.928Z,101762.88
2023-05-08T23:21:23.195Z,101750.31
2023-05-08T23:23:50.232Z,101753.66
2023-05-08T23:26:18.208Z,101752.84
2023-05-08T23:28:45.217Z,101748.09
2023-05-08T23:31:16.913Z,101747.09
2023-05-08T23:33:43.861Z,101752.69
2023-05-08T23:36:13.250Z,101736.81
2023-05-08T23:38:40.640Z,101742.00
2023-05-08T23:41:08.054Z,101748.44
2023-05-08T23:43:34.936Z,101740.72
2023-05-08T23:46:02.036Z,101730.63
2023-05-08T23:48:34.381Z,101725.91
2023-05-08T23:51:01.589Z,101725.59
2023-05-08T23:53:28.650Z,101735.31
2023-05-08T23:55:57.958Z,101719.84
2023-05-08T23:58:27.915Z,101729.59
